Terminal Aerodrome Forecast
Issued by NWS Melbourne, FL

Home | Current Version | Previous Version | Text Only | Print | Product List | Glossary On
Versions: 1 2 3 4 5 6 7 8 9 10 11 12 13 14 15 16
196
FTUS42 KMLB 291820 AAA
TAFVRB
TAF AMD
KVRB 291820Z 2918/3018 21010KT P6SM VCSH SCT035 BKN060
      TEMPO 2918/2921 VRB20G32KT 4SM TSRA BKN025CB BKN035
     FM300200 21004KT P6SM SCT080 BKN250
     FM301700 13008KT P6SM FEW025 FEW250=

USA.gov is the U.S. government's official web portal to all federal, state and local government web resources and services.